Time;durP1;ratioP1;P1;durP2;ratioP2;P2;SDS_P1;SDS_P2;PMS_P1;PMS_P2;Temp;Humidity;BMP_temperature;BMP_pressure;BME280_temperature;BME280_humidity;BME280_pressure;Samples;Min_cycle;Max_cycle;Signal;HPM_P1;HPM_P2
2022/11/10 00:00:29;;;;;;;36.97;28.15;;;9.80;99.90;;;;;;5034594;28;20029;-63
2022/11/10 00:02:59;;;;;;;39.17;28.30;;;9.80;99.90;;;;;;5034464;28;20361;-63
2022/11/10 00:05:25;;;;;;;43.30;30.02;;;9.80;99.90;;;;;;5034847;28;20033;-62
2022/11/10 00:07:51;;;;;;;36.13;26.13;;;9.80;99.90;;;;;;5034622;28;20486;-65
2022/11/10 00:10:16;;;;;;;32.13;24.35;;;9.80;99.90;;;;;;5032866;28;20403;-65
2022/11/10 00:12:42;;;;;;;43.20;29.90;;;9.70;99.90;;;;;;5034286;28;20033;-67
2022/11/10 00:17:54;;;;;;;34.45;25.52;;;9.60;99.90;;;;;;5034627;28;20033;-63
2022/11/10 00:20:20;;;;;;;50.97;37.05;;;9.60;99.90;;;;;;5034226;28;20018;-66
2022/11/10 00:22:45;;;;;;;37.00;29.27;;;9.50;99.90;;;;;;5033877;28;20013;-64
2022/11/10 00:25:11;;;;;;;36.38;26.83;;;9.40;99.90;;;;;;5034246;28;20105;-64
2022/11/10 00:27:37;;;;;;;41.45;28.35;;;9.30;99.90;;;;;;5033986;28;20022;-63
2022/11/10 00:30:04;;;;;;;36.58;26.88;;;9.40;99.90;;;;;;5033929;28;20021;-65
2022/11/10 00:32:30;;;;;;;32.50;23.83;;;9.40;99.90;;;;;;5033400;28;20029;-62
2022/11/10 00:34:56;;;;;;;39.80;27.33;;;9.40;99.90;;;;;;5033896;28;20486;-65
2022/11/10 00:37:21;;;;;;;38.88;29.02;;;9.40;99.90;;;;;;5033644;28;20025;-63
2022/11/10 00:39:47;;;;;;;30.88;23.90;;;9.30;99.90;;;;;;5033787;28;20062;-63
2022/11/10 00:42:13;;;;;;;29.60;22.42;;;9.30;99.90;;;;;;5033818;28;20063;-62
2022/11/10 00:44:38;;;;;;;40.50;29.90;;;9.30;99.90;;;;;;5033768;28;20022;-63
2022/11/10 00:47:04;;;;;;;30.75;22.77;;;9.30;99.90;;;;;;5033639;28;20418;-63
2022/11/10 00:49:30;;;;;;;28.98;22.23;;;9.30;99.90;;;;;;5033795;28;20479;-67
2022/11/10 00:51:55;;;;;;;33.15;23.58;;;9.20;99.90;;;;;;5033478;28;20392;-64
2022/11/10 00:54:21;;;;;;;27.70;21.20;;;9.30;99.90;;;;;;5033508;28;20023;-63
2022/11/10 00:56:47;;;;;;;31.88;23.83;;;9.30;99.90;;;;;;5033588;28;20044;-65
2022/11/10 00:59:12;;;;;;;38.45;27.90;;;9.20;99.90;;;;;;5033604;28;20025;-63
2022/11/10 01:01:38;;;;;;;52.42;35.97;;;9.20;99.90;;;;;;5033399;28;20040;-64
2022/11/10 01:04:04;;;;;;;43.13;30.63;;;9.10;99.90;;;;;;5033535;28;20024;-66
2022/11/10 01:06:30;;;;;;;43.22;31.45;;;9.10;99.90;;;;;;5033284;28;20075;-64
2022/11/10 01:08:55;;;;;;;49.65;36.13;;;9.10;99.90;;;;;;5033433;28;20033;-65
2022/11/10 01:11:23;;;;;;;78.28;54.33;;;9.10;99.90;;;;;;5033320;28;20495;-65
2022/11/10 01:13:50;;;;;;;64.40;46.75;;;9.00;99.90;;;;;;5033278;28;20041;-62
2022/11/10 01:16:23;;;;;;;59.83;44.58;;;8.90;99.90;;;;;;5033371;28;20464;-65
2022/11/10 01:18:55;;;;;;;92.32;66.10;;;8.90;99.90;;;;;;5033411;28;20029;-62
2022/11/10 01:21:21;;;;;;;59.53;45.40;;;8.90;99.90;;;;;;5033133;28;20037;-65
2022/11/10 01:23:47;;;;;;;51.88;41.17;;;8.90;99.90;;;;;;5033178;28;20472;-65
2022/11/10 01:26:14;;;;;;;60.88;44.50;;;8.80;99.90;;;;;;5033525;28;20431;-65
2022/11/10 01:28:39;;;;;;;46.33;34.80;;;8.90;99.90;;;;;;5033258;28;20021;-63
2022/11/10 01:31:14;;;;;;;45.70;35.08;;;8.90;99.90;;;;;;5033123;28;20084;-62
2022/11/10 01:33:40;;;;;;;45.17;31.27;;;8.90;99.90;;;;;;5033119;28;20036;-62
2022/11/10 01:36:06;;;;;;;44.53;33.70;;;8.90;99.90;;;;;;5033203;28;20030;-65
2022/11/10 01:38:34;;;;;;;35.83;27.67;;;8.90;99.90;;;;;;5032974;28;20544;-63
2022/11/10 01:41:01;;;;;;;34.65;26.52;;;8.80;99.90;;;;;;5033173;28;20030;-63
2022/11/10 01:43:27;;;;;;;33.63;25.00;;;8.80;99.90;;;;;;5034480;28;20429;-64
2022/11/10 01:46:09;;;;;;;38.30;28.75;;;8.80;99.90;;;;;;5037073;28;20383;-62
2022/11/10 01:48:56;;;;;;;33.35;25.48;;;8.90;99.90;;;;;;5036938;28;20475;-64
2022/11/10 01:51:24;;;;;;;27.98;21.45;;;8.80;99.90;;;;;;5036995;28;20021;-64
2022/11/10 01:53:55;;;;;;;25.75;18.48;;;8.80;99.90;;;;;;5037001;28;20071;-65
2022/11/10 01:56:21;;;;;;;23.10;18.02;;;8.80;99.90;;;;;;5036860;28;20013;-65
2022/11/10 01:58:52;;;;;;;22.30;17.58;;;8.80;99.90;;;;;;5037016;28;20025;-62
2022/11/10 02:01:18;;;;;;;21.58;17.20;;;8.80;99.90;;;;;;5036868;28;20037;-61
2022/11/10 02:03:57;;;;;;;19.88;15.18;;;8.80;99.90;;;;;;5036516;28;20047;-62
2022/11/10 02:06:26;;;;;;;20.83;16.55;;;8.80;99.90;;;;;;5037033;28;20104;-66
2022/11/10 02:08:52;;;;;;;19.05;15.13;;;8.70;99.90;;;;;;5036627;28;20021;-64
2022/11/10 02:11:18;;;;;;;17.42;13.27;;;8.70;99.90;;;;;;5036626;28;20033;-65
2022/11/10 02:13:44;;;;;;;19.73;15.88;;;8.70;99.90;;;;;;5036531;28;20403;-65
2022/11/10 02:16:10;;;;;;;22.67;16.02;;;8.70;99.90;;;;;;5036635;28;20028;-63
2022/11/10 02:18:37;;;;;;;18.10;14.38;;;8.70;99.90;;;;;;5036813;28;20384;-62
2022/11/10 02:21:16;;;;;;;16.80;13.63;;;8.60;99.90;;;;;;5036339;28;20492;-60
2022/11/10 02:23:48;;;;;;;17.13;11.95;;;8.60;99.90;;;;;;5036428;28;20017;-62
2022/11/10 02:26:17;;;;;;;17.35;12.88;;;8.60;99.90;;;;;;5036644;28;20033;-65
2022/11/10 02:28:44;;;;;;;22.45;16.73;;;8.60;99.90;;;;;;5036345;28;20104;-61
2022/11/10 02:31:09;;;;;;;24.92;18.13;;;8.60;99.90;;;;;;5036436;28;20118;-66
2022/11/10 02:33:35;;;;;;;19.90;15.60;;;8.60;99.90;;;;;;5036123;28;20511;-65
2022/11/10 02:36:01;;;;;;;15.18;12.43;;;8.50;99.90;;;;;;5036625;28;20018;-65
2022/11/10 02:38:27;;;;;;;19.15;15.50;;;8.50;99.90;;;;;;5036078;28;20459;-66
2022/11/10 02:40:53;;;;;;;24.35;18.85;;;8.50;99.90;;;;;;5035994;28;20048;-64
2022/11/10 02:43:19;;;;;;;28.65;21.13;;;8.40;99.90;;;;;;5035993;28;20025;-64
2022/11/10 02:45:45;;;;;;;25.85;19.85;;;8.30;99.90;;;;;;5035967;28;20071;-67
2022/11/10 02:48:13;;;;;;;25.73;18.80;;;8.20;99.90;;;;;;5035699;28;20022;-62
2022/11/10 02:50:39;;;;;;;41.28;28.40;;;8.30;99.90;;;;;;5036081;28;20026;-64
2022/11/10 02:53:05;;;;;;;38.40;27.75;;;8.30;99.90;;;;;;5035879;28;20021;-65
2022/11/10 02:55:31;;;;;;;25.55;19.05;;;8.30;99.90;;;;;;5034887;28;20060;-62
2022/11/10 02:57:56;;;;;;;45.85;32.33;;;8.30;99.90;;;;;;5035882;28;20384;-64
2022/11/10 03:00:23;;;;;;;39.92;30.10;;;8.30;99.90;;;;;;5035584;28;20032;-67
2022/11/10 03:02:54;;;;;;;30.63;23.27;;;8.20;99.90;;;;;;5035710;28;20018;-62
2022/11/10 03:05:19;;;;;;;43.95;30.67;;;8.20;99.90;;;;;;5035687;28;20017;-61
2022/11/10 03:07:50;;;;;;;49.28;34.55;;;8.20;99.90;;;;;;5035561;28;20112;-65
2022/11/10 03:10:16;;;;;;;39.90;27.85;;;8.20;99.90;;;;;;5035265;28;20527;-66
2022/11/10 03:12:41;;;;;;;40.70;28.95;;;8.10;99.90;;;;;;5035437;28;20108;-65
2022/11/10 03:15:08;;;;;;;34.78;25.25;;;8.20;99.90;;;;;;5035278;28;20057;-62
2022/11/10 03:17:33;;;;;;;52.13;33.35;;;8.20;99.90;;;;;;5035389;28;20033;-63
2022/11/10 03:19:59;;;;;;;32.92;24.75;;;8.20;99.90;;;;;;5035353;28;20025;-65
2022/11/10 03:22:24;;;;;;;35.45;27.35;;;8.20;99.90;;;;;;5035246;28;20029;-61
2022/11/10 03:24:50;;;;;;;38.78;27.42;;;8.20;99.90;;;;;;5035243;28;20392;-63
2022/11/10 03:27:16;;;;;;;31.25;22.92;;;8.20;99.90;;;;;;5035475;28;20419;-61
2022/11/10 03:29:41;;;;;;;29.15;22.23;;;8.20;99.90;;;;;;5035072;28;20092;-64
2022/11/10 03:32:07;;;;;;;31.15;22.95;;;8.10;99.90;;;;;;5035081;28;20391;-63
2022/11/10 03:34:32;;;;;;;25.95;18.95;;;8.10;99.90;;;;;;5035232;28;20368;-64
2022/11/10 03:36:58;;;;;;;23.83;18.48;;;8.10;99.90;;;;;;5035198;28;20417;-63
2022/11/10 03:39:24;;;;;;;21.60;16.70;;;8.10;99.90;;;;;;5035164;28;20017;-61
2022/11/10 03:41:49;;;;;;;20.02;15.30;;;8.10;99.90;;;;;;5034898;28;20116;-65
2022/11/10 03:44:15;;;;;;;16.75;13.02;;;8.10;99.90;;;;;;5034773;28;20029;-64
2022/11/10 03:46:40;;;;;;;16.15;12.48;;;8.10;99.90;;;;;;5034849;28;20021;-64
2022/11/10 03:49:06;;;;;;;15.77;12.18;;;8.00;99.90;;;;;;5034761;28;20028;-65
2022/11/10 03:51:32;;;;;;;15.88;11.68;;;8.00;99.90;;;;;;5034991;28;20412;-63
2022/11/10 03:53:57;;;;;;;12.73;10.15;;;8.10;99.90;;;;;;5034892;28;20029;-65
2022/11/10 03:56:23;;;;;;;14.95;11.20;;;8.00;99.90;;;;;;5034676;28;20021;-64
2022/11/10 03:58:48;;;;;;;16.73;13.00;;;8.00;99.90;;;;;;5034675;28;20021;-65
2022/11/10 04:01:14;;;;;;;16.73;11.70;;;7.90;99.90;;;;;;5034579;28;20030;-65
2022/11/10 04:03:40;;;;;;;13.02;10.15;;;7.90;99.90;;;;;;5034556;28;20108;-63
2022/11/10 04:09:00;;;;;;;11.50;9.05;;;7.90;99.90;;;;;;5034308;28;20119;-63
2022/11/10 04:16:56;;;;;;;10.95;8.82;;;7.90;99.90;;;;;;5034451;28;20101;-65
2022/11/10 04:19:22;;;;;;;11.25;8.88;;;7.90;99.90;;;;;;5034329;28;20536;-64
2022/11/10 04:21:48;;;;;;;10.27;8.43;;;7.90;99.90;;;;;;5034047;28;20112;-61
2022/11/10 04:24:14;;;;;;;14.38;10.38;;;7.90;99.90;;;;;;5034254;28;20056;-64
2022/11/10 04:26:41;;;;;;;13.18;10.35;;;7.90;99.90;;;;;;5034177;28;20028;-64
2022/11/10 04:29:09;;;;;;;14.05;10.77;;;7.80;99.90;;;;;;5034077;28;20034;-66
2022/11/10 04:31:37;;;;;;;11.40;9.07;;;7.80;99.90;;;;;;5034088;28;20114;-64
2022/11/10 04:34:04;;;;;;;15.30;10.80;;;7.70;99.90;;;;;;5033997;28;20526;-65
2022/11/10 04:36:32;;;;;;;20.67;14.30;;;7.80;99.90;;;;;;5033887;28;20034;-62
2022/11/10 04:38:58;;;;;;;28.80;19.42;;;7.80;99.90;;;;;;5033952;28;20524;-64
2022/11/10 04:41:25;;;;;;;20.90;15.07;;;7.70;99.90;;;;;;5033735;28;20109;-62
2022/11/10 04:43:52;;;;;;;18.70;13.68;;;7.70;99.90;;;;;;5033865;28;20497;-63
2022/11/10 04:46:30;;;;;;;16.15;12.85;;;7.60;99.90;;;;;;5033824;28;20021;-64
2022/11/10 04:48:56;;;;;;;13.82;10.65;;;7.60;99.90;;;;;;5033672;28;20025;-66
2022/11/10 04:51:25;;;;;;;14.00;11.27;;;7.60;99.90;;;;;;5033787;28;20025;-66
2022/11/10 04:53:51;;;;;;;20.08;15.13;;;7.70;99.90;;;;;;5033966;28;20113;-62
2022/11/10 04:56:19;;;;;;;19.08;14.07;;;7.60;99.90;;;;;;5033591;28;20104;-65
2022/11/10 04:58:45;;;;;;;16.02;12.60;;;7.50;99.90;;;;;;5033411;28;20026;-64
2022/11/10 05:01:12;;;;;;;14.40;11.13;;;7.50;99.90;;;;;;5033502;28;20056;-63
2022/11/10 05:03:38;;;;;;;13.23;10.90;;;7.60;99.90;;;;;;5033540;28;20044;-64
2022/11/10 05:06:04;;;;;;;13.27;10.80;;;7.60;99.90;;;;;;5033627;28;20468;-65
2022/11/10 05:08:30;;;;;;;12.65;9.32;;;7.60;99.90;;;;;;5033453;28;20026;-64
2022/11/10 05:10:55;;;;;;;12.95;10.38;;;7.60;99.90;;;;;;5033119;28;20037;-63
2022/11/10 05:13:21;;;;;;;27.38;20.15;;;7.60;99.90;;;;;;5033196;28;20025;-63
2022/11/10 05:15:46;;;;;;;28.48;21.60;;;7.60;99.90;;;;;;5033276;28;20044;-64
2022/11/10 05:18:12;;;;;;;42.55;32.65;;;7.40;99.90;;;;;;5032954;28;20030;-61
2022/11/10 05:20:38;;;;;;;54.05;36.47;;;7.40;99.90;;;;;;5033118;28;20021;-67
2022/11/10 05:25:47;;;;;;;67.50;48.83;;;7.30;99.90;;;;;;5033065;28;20056;-63
2022/11/10 05:28:15;;;;;;;56.38;41.20;;;7.30;99.90;;;;;;5033842;28;20471;-61
2022/11/10 05:30:41;;;;;;;53.92;38.35;;;7.30;99.90;;;;;;5033287;28;20021;-65
2022/11/10 05:33:06;;;;;;;40.22;31.23;;;7.40;99.90;;;;;;5033414;28;20045;-65
2022/11/10 05:35:33;;;;;;;38.92;29.90;;;7.40;99.90;;;;;;5033056;28;20037;-62
2022/11/10 05:37:58;;;;;;;44.15;31.75;;;7.40;99.90;;;;;;5033211;28;20037;-65
2022/11/10 05:40:24;;;;;;;40.28;28.73;;;7.50;99.90;;;;;;5033188;28;20021;-64
2022/11/10 05:42:51;;;;;;;57.22;38.63;;;7.50;99.90;;;;;;5032966;28;20422;-62
2022/11/10 05:45:22;;;;;;;43.25;32.70;;;7.50;99.90;;;;;;5033041;28;20104;-66
2022/11/10 05:47:48;;;;;;;33.55;27.17;;;7.50;99.90;;;;;;5033342;28;20041;-62
2022/11/10 05:50:15;;;;;;;33.83;26.05;;;7.60;99.90;;;;;;5032947;28;20018;-66
2022/11/10 05:52:46;;;;;;;35.42;25.73;;;7.60;99.90;;;;;;5033240;28;20033;-63
2022/11/10 05:55:13;;;;;;;29.00;22.65;;;7.60;99.90;;;;;;5032158;28;20031;-63
2022/11/10 05:57:42;;;;;;;30.48;22.95;;;7.70;99.90;;;;;;5033120;28;20034;-62
2022/11/10 06:00:08;;;;;;;30.00;22.35;;;7.70;99.90;;;;;;5032946;28;20079;-64
2022/11/10 06:02:34;;;;;;;31.85;22.00;;;7.80;99.90;;;;;;5032804;28;20025;-64
2022/11/10 06:05:00;;;;;;;26.13;19.95;;;7.80;99.90;;;;;;5033165;28;20380;-63
2022/11/10 06:07:25;;;;;;;28.92;20.55;;;7.80;99.90;;;;;;5032497;28;20149;-64
2022/11/10 06:09:51;;;;;;;23.42;19.40;;;7.90;99.90;;;;;;5032230;28;20054;-64
2022/11/10 06:12:17;;;;;;;22.20;17.17;;;7.90;99.90;;;;;;5032637;28;20025;-66
2022/11/10 06:14:42;;;;;;;22.33;17.60;;;7.90;99.90;;;;;;5032809;28;20029;-62
2022/11/10 06:17:08;;;;;;;26.10;19.48;;;7.90;99.90;;;;;;5031988;28;20426;-66
2022/11/10 06:19:34;;;;;;;23.00;18.50;;;7.90;99.90;;;;;;5032149;28;20387;-63
2022/11/10 06:21:59;;;;;;;29.98;20.48;;;7.90;99.90;;;;;;5032377;28;20057;-63
2022/11/10 06:24:25;;;;;;;40.08;25.75;;;7.90;99.90;;;;;;5033756;28;20057;-64
2022/11/10 06:26:51;;;;;;;111.60;82.43;;;7.90;99.90;;;;;;5042734;28;20072;-66
2022/11/10 06:29:16;;;;;;;116.07;82.53;;;7.90;99.90;;;;;;5046597;28;20025;-63
2022/11/10 06:31:42;;;;;;;135.02;95.20;;;7.80;99.90;;;;;;5054070;28;20445;-66
2022/11/10 06:34:07;;;;;;;164.80;110.72;;;7.70;99.90;;;;;;5054117;28;20057;-64
2022/11/10 06:36:33;;;;;;;152.35;109.00;;;7.70;99.90;;;;;;5054015;28;20054;-64
2022/11/10 06:38:59;;;;;;;156.48;106.85;;;7.70;99.90;;;;;;5054736;28;20021;-65
2022/11/10 06:41:24;;;;;;;186.90;128.40;;;7.70;99.90;;;;;;5053981;28;20025;-63
2022/11/10 06:43:50;;;;;;;159.70;114.05;;;7.80;99.90;;;;;;5053833;28;20451;-62
2022/11/10 06:46:16;;;;;;;147.48;105.85;;;7.70;99.90;;;;;;5055274;28;20483;-63
2022/11/10 06:48:41;;;;;;;148.23;104.30;;;7.80;99.90;;;;;;5055766;28;20047;-62
2022/11/10 06:51:07;;;;;;;185.93;121.88;;;7.80;99.90;;;;;;5055121;28;20025;-62
2022/11/10 06:53:33;;;;;;;241.20;149.38;;;7.90;99.90;;;;;;5049590;28;20029;-61
2022/11/10 06:55:58;;;;;;;193.70;129.38;;;7.90;99.90;;;;;;5055309;28;20021;-63
2022/11/10 06:58:24;;;;;;;167.38;112.28;;;7.90;99.90;;;;;;5055370;28;20490;-65
2022/11/10 07:00:49;;;;;;;147.25;99.85;;;8.00;99.90;;;;;;5054818;28;20025;-65
2022/11/10 07:03:15;;;;;;;162.60;111.88;;;8.10;99.90;;;;;;5055180;28;20032;-63
2022/11/10 07:05:41;;;;;;;236.52;156.38;;;8.20;99.90;;;;;;5051244;28;20028;-64
2022/11/10 07:08:14;;;;;;;211.57;138.82;;;8.20;99.90;;;;;;5044362;28;20088;-64
2022/11/10 07:10:41;;;;;;;148.00;99.93;;;8.10;99.90;;;;;;5042564;28;20060;-64
2022/11/10 07:13:08;;;;;;;131.27;92.30;;;8.30;99.90;;;;;;5044861;28;20034;-62
2022/11/10 07:15:34;;;;;;;124.05;85.53;;;9.90;99.90;;;;;;5043000;28;20561;-64
2022/11/10 07:18:01;;;;;;;118.13;83.85;;;11.90;99.90;;;;;;5043112;28;20058;-62
2022/11/10 07:20:27;;;;;;;125.53;87.45;;;13.70;99.10;;;;;;5044841;28;20029;-61
2022/11/10 07:22:59;;;;;;;116.15;87.05;;;15.10;88.60;;;;;;5049679;28;20510;-65
2022/11/10 07:25:26;;;;;;;100.20;72.72;;;16.30;76.90;;;;;;5042926;28;20084;-63
2022/11/10 07:27:56;;;;;;;96.07;73.70;;;17.20;72.50;;;;;;5042949;28;20394;-68
2022/11/10 07:30:28;;;;;;;85.07;66.07;;;17.80;66.50;;;;;;5039284;28;20029;-64
2022/11/10 07:33:13;;;;;;;69.60;55.72;;;18.50;63.50;;;;;;5049564;28;20025;-63
2022/11/10 07:35:39;;;;;;;69.30;52.28;;;19.20;63.40;;;;;;5051848;28;20116;-65
2022/11/10 07:38:09;;;;;;;96.18;73.32;;;19.40;58.80;;;;;;5051264;28;20422;-68
2022/11/10 07:40:35;;;;;;;81.68;65.82;;;18.90;60.50;;;;;;5051430;28;20029;-63
2022/11/10 07:43:01;;;;;;;83.88;67.68;;;18.80;61.40;;;;;;5052973;28;20029;-64
2022/11/10 07:45:27;;;;;;;68.60;57.13;;;19.10;61.70;;;;;;5051597;28;20021;-66
2022/11/10 07:48:05;;;;;;;63.30;53.90;;;19.70;61.10;;;;;;5046547;28;20036;-65
2022/11/10 07:50:32;;;;;;;51.30;45.45;;;19.90;60.00;;;;;;5051103;28;20061;-63
2022/11/10 07:53:06;;;;;;;44.20;39.38;;;20.50;59.50;;;;;;5046683;28;20037;-65
2022/11/10 07:55:32;;;;;;;33.83;30.30;;;21.50;58.20;;;;;;5053525;28;20026;-65
2022/11/10 07:57:58;;;;;;;28.35;25.38;;;21.90;56.00;;;;;;5039004;28;20037;-65
2022/11/10 08:00:24;;;;;;;25.65;21.65;;;21.60;55.20;;;;;;5032132;28;20425;-70
2022/11/10 08:02:51;;;;;;;24.35;21.70;;;21.60;55.10;;;;;;5034299;28;20033;-64
2022/11/10 08:05:17;;;;;;;28.00;24.95;;;21.30;55.30;;;;;;5048691;28;20029;-67
2022/11/10 08:07:42;;;;;;;30.73;26.48;;;21.20;56.80;;;;;;5047027;28;20025;-67
2022/11/10 08:10:08;;;;;;;49.10;43.78;;;21.30;56.90;;;;;;5048087;28;20499;-66
2022/11/10 08:12:34;;;;;;;42.75;38.13;;;21.10;56.80;;;;;;5049393;28;20471;-64
2022/11/10 08:15:00;;;;;;;40.85;36.22;;;20.50;57.70;;;;;;5040886;28;20399;-63
2022/11/10 08:17:26;;;;;;;38.35;34.45;;;20.00;59.20;;;;;;5049143;28;20095;-63
2022/11/10 08:19:52;;;;;;;39.55;35.05;;;20.00;59.70;;;;;;5047575;28;20040;-64
2022/11/10 08:22:17;;;;;;;37.20;33.28;;;19.50;61.10;;;;;;5049096;28;20397;-63
2022/11/10 08:24:43;;;;;;;40.35;34.90;;;19.20;61.90;;;;;;5051268;28;20020;-66
2022/11/10 08:27:08;;;;;;;39.17;34.97;;;19.50;62.80;;;;;;5049949;28;20376;-64
2022/11/10 08:29:34;;;;;;;36.58;32.88;;;19.20;61.80;;;;;;5052550;28;20096;-67
2022/11/10 08:32:00;;;;;;;45.80;38.72;;;18.70;64.30;;;;;;5052367;28;20493;-64
2022/11/10 08:34:26;;;;;;;41.85;34.83;;;18.20;67.90;;;;;;5048911;28;20033;-64
2022/11/10 08:36:52;;;;;;;40.20;34.30;;;18.40;66.70;;;;;;5048707;28;20082;-65
2022/11/10 08:39:18;;;;;;;34.42;30.73;;;18.20;69.00;;;;;;5056968;28;20357;-67
2022/11/10 08:41:44;;;;;;;35.10;31.38;;;18.00;67.80;;;;;;5067986;28;20039;-67
2022/11/10 08:44:09;;;;;;;30.27;27.05;;;17.90;73.50;;;;;;5065001;28;20047;-63
2022/11/10 08:46:35;;;;;;;27.63;23.80;;;17.60;70.00;;;;;;5064220;28;20028;-64
2022/11/10 08:49:01;;;;;;;23.77;21.17;;;17.80;73.40;;;;;;5047956;28;20476;-65
2022/11/10 08:51:26;;;;;;;21.05;18.98;;;18.10;70.50;;;;;;5036109;28;20032;-63
2022/11/10 08:53:52;;;;;;;23.35;19.10;;;18.20;77.00;;;;;;5044073;28;20408;-69
2022/11/10 08:56:18;;;;;;;19.88;17.77;;;18.30;74.00;;;;;;5047584;28;20776;-66
2022/11/10 08:58:44;;;;;;;19.33;17.05;;;18.30;72.40;;;;;;5038191;28;20033;-68
2022/11/10 09:01:10;;;;;;;31.10;27.65;;;18.30;72.10;;;;;;5039520;28;20037;-64
2022/11/10 09:03:36;;;;;;;30.75;27.42;;;18.20;71.80;;;;;;5046829;28;20037;-63
2022/11/10 09:06:02;;;;;;;31.73;28.48;;;18.20;72.30;;;;;;5045055;28;20262;-69
2022/11/10 09:08:29;;;;;;;29.77;26.73;;;18.20;73.10;;;;;;5047595;28;20108;-63
2022/11/10 09:10:55;;;;;;;27.33;24.58;;;18.50;74.20;;;;;;5048518;28;20048;-69
2022/11/10 09:13:22;;;;;;;27.73;24.73;;;19.00;73.50;;;;;;5047477;28;20057;-63
2022/11/10 09:15:47;;;;;;;26.23;23.42;;;19.30;68.10;;;;;;5049367;28;20025;-67
2022/11/10 09:18:14;;;;;;;24.02;20.42;;;19.80;65.50;;;;;;5032724;28;20052;-65
2022/11/10 09:20:40;;;;;;;20.98;17.13;;;20.20;62.50;;;;;;5029050;28;20448;-67
2022/11/10 09:23:09;;;;;;;19.42;17.33;;;20.60;62.50;;;;;;5029786;28;20037;-67
2022/11/10 09:25:35;;;;;;;26.65;23.17;;;20.60;60.10;;;;;;5031360;28;20033;-70
2022/11/10 09:28:01;;;;;;;26.27;23.42;;;20.90;60.20;;;;;;5040145;28;20029;-64
2022/11/10 09:30:27;;;;;;;25.13;22.52;;;20.80;60.90;;;;;;5030710;28;20021;-63
2022/11/10 09:32:57;;;;;;;22.70;20.40;;;21.10;59.00;;;;;;5036582;28;20071;-66
2022/11/10 09:35:24;;;;;;;25.83;23.15;;;21.40;59.10;;;;;;5042936;28;20028;-67
2022/11/10 09:37:50;;;;;;;24.85;22.30;;;21.80;58.60;;;;;;5037289;28;20140;-68
2022/11/10 09:40:49;;;;;;;23.83;21.33;;;22.00;56.40;;;;;;5036223;28;20131;-68
2022/11/10 09:43:32;;;;;;;19.42;17.42;;;22.20;53.40;;;;;;5050075;28;20039;-67
2022/11/10 09:46:03;;;;;;;16.88;15.13;;;22.40;53.30;;;;;;5047742;28;20108;-63
2022/11/10 09:48:34;;;;;;;13.90;12.57;;;22.50;55.40;;;;;;5039494;28;20497;-63
2022/11/10 09:51:09;;;;;;;11.82;10.63;;;22.60;53.30;;;;;;5033180;28;20044;-68
2022/11/10 09:53:43;;;;;;;11.95;10.65;;;22.80;52.60;;;;;;5029462;28;20130;-68
2022/11/10 09:56:31;;;;;;;13.88;12.10;;;22.90;51.90;;;;;;5042765;28;20154;-67
2022/11/10 09:58:56;;;;;;;14.63;12.45;;;23.00;51.40;;;;;;5031199;28;20026;-66
2022/11/10 10:01:34;;;;;;;13.52;12.05;;;22.90;51.40;;;;;;5036353;28;20048;-63
2022/11/10 10:04:43;;;;;;;12.00;10.90;;;23.10;50.00;;;;;;5030248;28;20036;-66
2022/11/10 10:07:26;;;;;;;10.95;9.82;;;23.20;50.80;;;;;;5038294;28;20083;-62
2022/11/10 10:09:54;;;;;;;9.35;8.43;;;23.30;51.40;;;;;;5045616;28;20218;-63
2022/11/10 10:12:35;;;;;;;9.48;8.38;;;23.40;51.10;;;;;;5048663;28;20056;-64
2022/11/10 10:15:22;;;;;;;9.02;8.05;;;23.30;52.50;;;;;;5043478;28;20052;-67
2022/11/10 10:18:03;;;;;;;10.07;9.07;;;23.40;51.00;;;;;;5049140;28;20025;-67
2022/11/10 10:23:53;;;;;;;9.18;8.15;;;23.60;50.40;;;;;;5043593;28;20196;-64
2022/11/10 10:26:25;;;;;;;8.98;8.07;;;23.70;50.70;;;;;;5044433;28;20116;-64
2022/11/10 10:28:51;;;;;;;10.68;9.35;;;23.80;48.90;;;;;;5037498;28;20092;-64
2022/11/10 10:31:20;;;;;;;7.93;6.93;;;24.00;46.80;;;;;;5046657;28;20136;-68
2022/11/10 10:33:47;;;;;;;6.53;5.85;;;24.10;46.40;;;;;;5039024;28;20033;-66
2022/11/10 10:36:31;;;;;;;6.75;6.15;;;24.30;47.80;;;;;;5049261;28;20028;-64
2022/11/10 10:39:06;;;;;;;5.47;4.95;;;24.50;47.00;;;;;;5034863;28;20026;-67
2022/11/10 10:41:35;;;;;;;4.93;4.53;;;24.60;46.10;;;;;;5036118;28;20395;-66
2022/11/10 10:44:08;;;;;;;4.75;4.35;;;24.60;45.70;;;;;;5043900;28;20373;-64
2022/11/10 10:46:47;;;;;;;4.25;3.85;;;24.80;45.30;;;;;;5052107;28;20379;-67
2022/11/10 10:49:21;;;;;;;4.60;4.10;;;24.90;45.40;;;;;;5052749;28;20028;-70
2022/11/10 10:51:47;;;;;;;5.13;4.72;;;25.10;44.60;;;;;;5049381;28;20099;-68
2022/11/10 10:54:27;;;;;;;5.07;4.57;;;25.20;46.00;;;;;;5049116;28;20028;-67
2022/11/10 10:57:22;;;;;;;5.22;4.78;;;25.40;46.20;;;;;;5049969;28;20128;-67
2022/11/10 10:59:48;;;;;;;7.30;6.60;;;25.50;45.20;;;;;;5051305;28;20075;-65
2022/11/10 11:02:30;;;;;;;6.93;6.22;;;25.60;45.20;;;;;;5051301;28;20506;-64
2022/11/10 11:05:17;;;;;;;6.35;5.65;;;25.30;44.60;;;;;;5050867;28;20550;-64
2022/11/10 11:08:00;;;;;;;5.47;4.97;;;25.20;45.90;;;;;;5039165;28;20104;-66
2022/11/10 11:10:32;;;;;;;5.40;4.90;;;24.90;46.00;;;;;;5044604;28;20151;-66
2022/11/10 11:13:25;;;;;;;5.07;4.68;;;25.20;44.70;;;;;;5039432;28;20134;-67
2022/11/10 11:15:57;;;;;;;6.47;5.82;;;25.40;45.70;;;;;;5040104;28;20090;-67
2022/11/10 11:18:25;;;;;;;6.25;5.70;;;25.50;42.90;;;;;;5046221;28;20045;-65
2022/11/10 11:20:59;;;;;;;5.50;5.00;;;25.60;44.60;;;;;;5044185;28;20029;-66
2022/11/10 11:23:41;;;;;;;6.85;6.10;;;25.70;43.70;;;;;;5043379;28;20039;-65
2022/11/10 11:26:45;;;;;;;6.15;5.65;;;25.70;43.60;;;;;;5050916;28;20049;-64
2022/11/10 11:29:25;;;;;;;7.38;6.68;;;25.80;44.50;;;;;;5031961;28;20025;-67
2022/11/10 11:32:14;;;;;;;6.10;5.50;;;25.80;44.00;;;;;;5033382;28;20461;-67
2022/11/10 11:34:55;;;;;;;6.38;5.80;;;25.90;44.30;;;;;;5034783;28;20530;-64
2022/11/10 11:37:33;;;;;;;6.07;5.47;;;25.80;45.20;;;;;;5032529;28;20025;-65
2022/11/10 11:40:17;;;;;;;7.07;6.47;;;25.90;46.70;;;;;;5031306;28;20060;-66
2022/11/10 11:43:12;;;;;;;10.18;9.02;;;26.00;44.60;;;;;;5032105;28;20471;-67
2022/11/10 11:46:04;;;;;;;7.45;6.75;;;26.20;44.70;;;;;;5030325;28;20076;-67
2022/11/10 11:48:39;;;;;;;7.57;6.88;;;26.30;44.60;;;;;;5030875;28;20029;-63
2022/11/10 11:51:16;;;;;;;8.25;7.45;;;26.50;43.70;;;;;;5032553;28;20049;-64
2022/11/10 11:54:08;;;;;;;10.23;8.73;;;26.30;43.80;;;;;;5031147;28;20105;-65
2022/11/10 11:56:40;;;;;;;8.77;7.97;;;25.70;44.30;;;;;;5031985;28;20467;-63
2022/11/10 11:59:31;;;;;;;11.68;10.48;;;25.80;44.50;;;;;;5032543;28;20029;-67
2022/11/10 12:02:16;;;;;;;13.70;11.65;;;25.80;44.80;;;;;;5035932;28;20080;-65
2022/11/10 12:04:46;;;;;;;11.98;10.85;;;25.80;44.30;;;;;;5042233;28;20105;-67
2022/11/10 12:07:30;;;;;;;12.02;10.82;;;25.70;45.90;;;;;;5042069;28;20106;-66
2022/11/10 12:10:23;;;;;;;11.65;10.13;;;26.10;46.90;;;;;;5052085;28;20053;-67
2022/11/10 12:13:20;;;;;;;11.15;10.05;;;26.40;45.90;;;;;;5052331;28;20391;-64
2022/11/10 12:15:48;;;;;;;18.05;16.17;;;26.60;44.60;;;;;;5052877;28;20044;-65
2022/11/10 12:18:17;;;;;;;12.27;10.85;;;26.30;44.60;;;;;;5051809;28;20021;-63
2022/11/10 12:20:49;;;;;;;10.40;9.30;;;26.40;45.20;;;;;;5053187;28;20475;-68
2022/11/10 12:23:33;;;;;;;9.55;8.65;;;26.70;44.40;;;;;;5053541;28;20059;-65
2022/11/10 12:26:28;;;;;;;8.63;7.75;;;26.80;45.20;;;;;;5052732;28;20086;-66
2022/11/10 12:29:13;;;;;;;7.07;6.38;;;26.50;46.60;;;;;;5050988;28;20384;-63
2022/11/10 12:31:41;;;;;;;4.78;4.18;;;26.30;48.00;;;;;;5049647;28;20531;-70
2022/11/10 12:34:30;;;;;;;3.28;2.97;;;26.10;48.80;;;;;;5051508;28;20059;-62
2022/11/10 12:36:58;;;;;;;4.07;2.55;;;25.70;49.40;;;;;;5045191;28;20033;-66
2022/11/10 12:39:40;;;;;;;3.38;2.33;;;25.60;51.50;;;;;;5040514;28;20035;-62
2022/11/10 12:42:13;;;;;;;2.42;2.22;;;25.90;50.40;;;;;;5042504;28;21642;-64
2022/11/10 12:44:48;;;;;;;2.60;2.15;;;25.90;50.10;;;;;;5052431;28;20551;-64
2022/11/10 12:47:18;;;;;;;2.58;2.00;;;25.70;49.90;;;;;;5053534;28;20031;-68
2022/11/10 12:50:16;;;;;;;2.17;2.08;;;25.70;49.30;;;;;;5053689;28;20044;-66
2022/11/10 12:52:57;;;;;;;2.40;2.20;;;25.70;48.50;;;;;;5051759;28;20047;-64
2022/11/10 12:55:35;;;;;;;2.10;2.00;;;25.60;49.60;;;;;;5051755;28;20025;-64
2022/11/10 12:58:04;;;;;;;2.28;2.08;;;25.50;48.80;;;;;;5053803;28;20032;-63
2022/11/10 13:00:39;;;;;;;2.15;1.95;;;25.40;47.50;;;;;;5046579;28;20101;-66
2022/11/10 13:03:13;;;;;;;2.08;1.98;;;25.30;48.00;;;;;;5032812;28;20021;-64
2022/11/10 13:05:41;;;;;;;2.00;1.90;;;25.20;49.00;;;;;;5038642;28;20075;-67